sensor_id;sensor_type;location;lat;lon;timestamp;pressure;altitude;pressure_sealevel;temperature;humidity
69318;BME280;56457;52.190;4.440;2023-12-14T00:00:51;101247.66;;;6.55;100.00
69318;BME280;56457;52.190;4.440;2023-12-14T00:01:51;101246.78;;;6.55;100.00
69318;BME280;56457;52.190;4.440;2023-12-14T00:02:51;101247.69;;;6.57;100.00
69318;BME280;56457;52.190;4.440;2023-12-14T00:03:52;101246.72;;;6.50;100.00
69318;BME280;56457;52.190;4.440;2023-12-14T00:04:52;101251.06;;;6.51;100.00
69318;BME280;56457;52.190;4.440;2023-12-14T00:05:52;101252.84;;;6.52;100.00
69318;BME280;56457;52.190;4.440;2023-12-14T00:06:52;101251.13;;;6.54;100.00
69318;BME280;56457;52.190;4.440;2023-12-14T00:07:53;101258.88;;;6.51;100.00
69318;BME280;56457;52.190;4.440;2023-12-14T00:08:53;101269.31;;;6.51;100.00
69318;BME280;56457;52.190;4.440;2023-12-14T00:09:53;101277.09;;;6.48;100.00
69318;BME280;56457;52.190;4.440;2023-12-14T00:10:53;101274.50;;;6.50;100.00
69318;BME280;56457;52.190;4.440;2023-12-14T00:11:54;101277.22;;;6.56;100.00
69318;BME280;56457;52.190;4.440;2023-12-14T00:12:54;101276.38;;;6.58;100.00
69318;BME280;56457;52.190;4.440;2023-12-14T00:13:55;101274.66;;;6.59;100.00
69318;BME280;56457;52.190;4.440;2023-12-14T00:14:55;101274.69;;;6.62;100.00
69318;BME280;56457;52.190;4.440;2023-12-14T00:15:56;101266.00;;;6.61;100.00
69318;BME280;56457;52.190;4.440;2023-12-14T00:16:56;101278.09;;;6.58;100.00
69318;BME280;56457;52.190;4.440;2023-12-14T00:17:59;101267.66;;;6.58;100.00
69318;BME280;56457;52.190;4.440;2023-12-14T00:18:59;101270.31;;;6.59;100.00
69318;BME280;56457;52.190;4.440;2023-12-14T00:19:59;101275.59;;;6.64;100.00
69318;BME280;56457;52.190;4.440;2023-12-14T00:20:59;101274.56;;;6.53;100.00
69318;BME280;56457;52.190;4.440;2023-12-14T00:22:00;101271.97;;;6.53;100.00
69318;BME280;56457;52.190;4.440;2023-12-14T00:23:00;101276.41;;;6.60;100.00
69318;BME280;56457;52.190;4.440;2023-12-14T00:24:00;101283.44;;;6.65;100.00
69318;BME280;56457;52.190;4.440;2023-12-14T00:25:01;101278.19;;;6.62;100.00
69318;BME280;56457;52.190;4.440;2023-12-14T00:26:01;101280.66;;;6.55;100.00
69318;BME280;56457;52.190;4.440;2023-12-14T00:27:01;101286.88;;;6.63;100.00
69318;BME280;56457;52.190;4.440;2023-12-14T00:28:01;101296.34;;;6.58;100.00
69318;BME280;56457;52.190;4.440;2023-12-14T00:29:02;101288.50;;;6.55;100.00
69318;BME280;56457;52.190;4.440;2023-12-14T00:30:02;101302.38;;;6.54;100.00
69318;BME280;56457;52.190;4.440;2023-12-14T00:31:02;101307.53;;;6.49;100.00
69318;BME280;56457;52.190;4.440;2023-12-14T00:32:03;101311.06;;;6.53;100.00
69318;BME280;56457;52.190;4.440;2023-12-14T00:33:03;101311.13;;;6.57;100.00
69318;BME280;56457;52.190;4.440;2023-12-14T00:34:03;101311.09;;;6.54;100.00
69318;BME280;56457;52.190;4.440;2023-12-14T00:35:04;101313.72;;;6.57;100.00
69318;BME280;56457;52.190;4.440;2023-12-14T00:36:04;101316.41;;;6.60;100.00
69318;BME280;56457;52.190;4.440;2023-12-14T00:37:04;101328.66;;;6.66;100.00
69318;BME280;56457;52.190;4.440;2023-12-14T00:38:05;101330.41;;;6.68;100.00
69318;BME280;56457;52.190;4.440;2023-12-14T00:39:05;101330.31;;;6.61;100.00
69318;BME280;56457;52.190;4.440;2023-12-14T00:40:05;101338.97;;;6.60;100.00
69318;BME280;56457;52.190;4.440;2023-12-14T00:41:06;101340.66;;;6.58;100.00
69318;BME280;56457;52.190;4.440;2023-12-14T00:42:06;101337.38;;;6.68;100.00
69318;BME280;56457;52.190;4.440;2023-12-14T00:43:06;101336.41;;;6.63;100.00
69318;BME280;56457;52.190;4.440;2023-12-14T00:44:07;101342.59;;;6.68;100.00
69318;BME280;56457;52.190;4.440;2023-12-14T00:45:07;101338.13;;;6.62;100.00
69318;BME280;56457;52.190;4.440;2023-12-14T00:46:07;101338.16;;;6.64;100.00
69318;BME280;56457;52.190;4.440;2023-12-14T00:47:08;101345.16;;;6.66;100.00
69318;BME280;56457;52.190;4.440;2023-12-14T00:48:08;101350.38;;;6.65;100.00
69318;BME280;56457;52.190;4.440;2023-12-14T00:49:08;101349.50;;;6.66;100.00
69318;BME280;56457;52.190;4.440;2023-12-14T00:50:08;101350.38;;;6.65;100.00
69318;BME280;56457;52.190;4.440;2023-12-14T00:51:09;101350.31;;;6.62;100.00
69318;BME280;56457;52.190;4.440;2023-12-14T00:52:09;101365.94;;;6.60;100.00
69318;BME280;56457;52.190;4.440;2023-12-14T00:53:09;101367.56;;;6.54;100.00
69318;BME280;56457;52.190;4.440;2023-12-14T00:54:10;101366.75;;;6.58;100.00
69318;BME280;56457;52.190;4.440;2023-12-14T00:55:10;101359.84;;;6.60;100.00
69318;BME280;56457;52.190;4.440;2023-12-14T00:56:10;101369.31;;;6.56;100.00
69318;BME280;56457;52.190;4.440;2023-12-14T00:57:12;101371.94;;;6.56;100.00
69318;BME280;56457;52.190;4.440;2023-12-14T00:58:12;101369.31;;;6.55;100.00
69318;BME280;56457;52.190;4.440;2023-12-14T00:59:13;101375.47;;;6.60;100.00
69318;BME280;56457;52.190;4.440;2023-12-14T01:00:13;101378.16;;;6.64;100.00
69318;BME280;56457;52.190;4.440;2023-12-14T01:01:14;101373.78;;;6.62;100.00
69318;BME280;56457;52.190;4.440;2023-12-14T01:02:14;101384.25;;;6.65;100.00
69318;BME280;56457;52.190;4.440;2023-12-14T01:03:14;101385.94;;;6.63;100.00
69318;BME280;56457;52.190;4.440;2023-12-14T01:04:14;101386.72;;;6.57;100.00
69318;BME280;56457;52.190;4.440;2023-12-14T01:05:15;101393.75;;;6.61;100.00
69318;BME280;56457;52.190;4.440;2023-12-14T01:06:15;101393.78;;;6.64;100.00
69318;BME280;56457;52.190;4.440;2023-12-14T01:07:15;101397.31;;;6.66;100.00
69318;BME280;56457;52.190;4.440;2023-12-14T01:08:16;101396.56;;;6.72;100.00
69318;BME280;56457;52.190;4.440;2023-12-14T01:09:16;101395.59;;;6.68;100.00
69318;BME280;56457;52.190;4.440;2023-12-14T01:10:16;101395.63;;;6.70;100.00
69318;BME280;56457;52.190;4.440;2023-12-14T01:11:17;101393.97;;;6.73;100.00
69318;BME280;56457;52.190;4.440;2023-12-14T01:12:17;101401.81;;;6.75;100.00
69318;BME280;56457;52.190;4.440;2023-12-14T01:13:17;101397.44;;;6.74;100.00
69318;BME280;56457;52.190;4.440;2023-12-14T01:14:17;101401.72;;;6.70;100.00
69318;BME280;56457;52.190;4.440;2023-12-14T01:15:18;101399.91;;;6.65;100.00
69318;BME280;56457;52.190;4.440;2023-12-14T01:16:18;101395.56;;;6.65;100.00
69318;BME280;56457;52.190;4.440;2023-12-14T01:17:18;101402.53;;;6.66;100.00
69318;BME280;56457;52.190;4.440;2023-12-14T01:18:18;101396.44;;;6.66;100.00
69318;BME280;56457;52.190;4.440;2023-12-14T01:19:19;101397.31;;;6.65;100.00
69318;BME280;56457;52.190;4.440;2023-12-14T01:20:19;101399.00;;;6.64;100.00
69318;BME280;56457;52.190;4.440;2023-12-14T01:21:19;101402.53;;;6.66;100.00
69318;BME280;56457;52.190;4.440;2023-12-14T01:22:20;101402.56;;;6.68;100.00
69318;BME280;56457;52.190;4.440;2023-12-14T01:23:20;101403.44;;;6.68;100.00
69318;BME280;56457;52.190;4.440;2023-12-14T01:24:20;101408.53;;;6.61;100.00
69318;BME280;56457;52.190;4.440;2023-12-14T01:25:20;101405.91;;;6.61;100.00
69318;BME280;56457;52.190;4.440;2023-12-14T01:26:21;101411.91;;;6.57;100.00
69318;BME280;56457;52.190;4.440;2023-12-14T01:27:21;101413.66;;;6.58;100.00
69318;BME280;56457;52.190;4.440;2023-12-14T01:28:21;101419.06;;;6.67;100.00
69318;BME280;56457;52.190;4.440;2023-12-14T01:29:21;101414.72;;;6.67;100.00
69318;BME280;56457;52.190;4.440;2023-12-14T01:30:22;101413.94;;;6.73;100.00
69318;BME280;56457;52.190;4.440;2023-12-14T01:31:22;101419.97;;;6.70;100.00
69318;BME280;56457;52.190;4.440;2023-12-14T01:32:23;101419.91;;;6.66;100.00
69318;BME280;56457;52.190;4.440;2023-12-14T01:33:23;101424.28;;;6.67;100.00
69318;BME280;56457;52.190;4.440;2023-12-14T01:34:23;101425.97;;;6.65;100.00
69318;BME280;56457;52.190;4.440;2023-12-14T01:35:24;101418.97;;;6.64;100.00
69318;BME280;56457;52.190;4.440;2023-12-14T01:36:24;101427.84;;;6.72;100.00
69318;BME280;56457;52.190;4.440;2023-12-14T01:37:25;101422.56;;;6.70;100.00
69318;BME280;56457;52.190;4.440;2023-12-14T01:38:25;101426.78;;;6.61;100.00
69318;BME280;56457;52.190;4.440;2023-12-14T01:39:25;101440.56;;;6.55;100.00
69318;BME280;56457;52.190;4.440;2023-12-14T01:40:26;101440.59;;;6.58;100.00
69318;BME280;56457;52.190;4.440;2023-12-14T01:41:26;101437.09;;;6.56;100.00
69318;BME280;56457;52.190;4.440;2023-12-14T01:42:26;101443.41;;;6.67;100.00
69318;BME280;56457;52.190;4.440;2023-12-14T01:43:27;101444.28;;;6.69;100.00
69318;BME280;56457;52.190;4.440;2023-12-14T01:44:27;101441.63;;;6.65;100.00
69318;BME280;56457;52.190;4.440;2023-12-14T01:45:27;101441.56;;;6.63;100.00
69318;BME280;56457;52.190;4.440;2023-12-14T01:46:27;101440.69;;;6.61;100.00
69318;BME280;56457;52.190;4.440;2023-12-14T01:47:28;101445.03;;;6.62;100.00
69318;BME280;56457;52.190;4.440;2023-12-14T01:48:28;101450.34;;;6.67;100.00
69318;BME280;56457;52.190;4.440;2023-12-14T01:49:28;101447.66;;;6.64;100.00
69318;BME280;56457;52.190;4.440;2023-12-14T01:50:28;101452.88;;;6.64;100.00
69318;BME280;56457;52.190;4.440;2023-12-14T01:51:29;101456.41;;;6.66;100.00
69318;BME280;56457;52.190;4.440;2023-12-14T01:52:29;101458.06;;;6.62;100.00
69318;BME280;56457;52.190;4.440;2023-12-14T01:53:29;101456.31;;;6.61;100.00
69318;BME280;56457;52.190;4.440;2023-12-14T01:54:30;101459.03;;;6.66;100.00
69318;BME280;56457;52.190;4.440;2023-12-14T01:55:30;101457.22;;;6.63;100.00
69318;BME280;56457;52.190;4.440;2023-12-14T01:56:31;101470.25;;;6.62;100.00
69318;BME280;56457;52.190;4.440;2023-12-14T01:57:31;101460.78;;;6.67;100.00
69318;BME280;56457;52.190;4.440;2023-12-14T01:58:31;101461.56;;;6.63;100.00
69318;BME280;56457;52.190;4.440;2023-12-14T01:59:32;101469.50;;;6.69;100.00
69318;BME280;56457;52.190;4.440;2023-12-14T02:01:45;101466.09;;;6.71;100.00
69318;BME280;56457;52.190;4.440;2023-12-14T02:02:46;101474.78;;;6.72;100.00
69318;BME280;56457;52.190;4.440;2023-12-14T02:03:46;101472.00;;;6.63;100.00
69318;BME280;56457;52.190;4.440;2023-12-14T02:04:48;101482.38;;;6.60;100.00
69318;BME280;56457;52.190;4.440;2023-12-14T02:05:48;101488.56;;;6.65;100.00
69318;BME280;56457;52.190;4.440;2023-12-14T02:06:49;101483.34;;;6.65;100.00
69318;BME280;56457;52.190;4.440;2023-12-14T02:07:49;101479.78;;;6.61;100.00
69318;BME280;56457;52.190;4.440;2023-12-14T02:08:50;101485.97;;;6.66;100.00
69318;BME280;56457;52.190;4.440;2023-12-14T02:09:50;101479.13;;;6.71;100.00
69318;BME280;56457;52.190;4.440;2023-12-14T02:10:51;101484.38;;;6.74;100.00
69318;BME280;56457;52.190;4.440;2023-12-14T02:11:51;101484.34;;;6.71;100.00
69318;BME280;56457;52.190;4.440;2023-12-14T02:12:51;101481.69;;;6.70;100.00
69318;BME280;56457;52.190;4.440;2023-12-14T02:13:51;101487.72;;;6.66;100.00
69318;BME280;56457;52.190;4.440;2023-12-14T02:14:52;101487.72;;;6.66;100.00
69318;BME280;56457;52.190;4.440;2023-12-14T02:15:52;101498.16;;;6.67;100.00
69318;BME280;56457;52.190;4.440;2023-12-14T02:16:53;101488.69;;;6.71;100.00
69318;BME280;56457;52.190;4.440;2023-12-14T02:17:54;101495.59;;;6.70;100.00
69318;BME280;56457;52.190;4.440;2023-12-14T02:18:54;101492.97;;;6.69;100.00
69318;BME280;56457;52.190;4.440;2023-12-14T02:19:54;101494.66;;;6.65;100.00
69318;BME280;56457;52.190;4.440;2023-12-14T02:20:54;101505.88;;;6.61;100.00
69318;BME280;56457;52.190;4.440;2023-12-14T02:21:55;101502.38;;;6.61;100.00
69318;BME280;56457;52.190;4.440;2023-12-14T02:22:55;101509.53;;;6.71;100.00
69318;BME280;56457;52.190;4.440;2023-12-14T02:23:56;101506.84;;;6.66;100.00
69318;BME280;56457;52.190;4.440;2023-12-14T02:24:56;101507.69;;;6.65;100.00
69318;BME280;56457;52.190;4.440;2023-12-14T02:25:57;101512.84;;;6.62;100.00
69318;BME280;56457;52.190;4.440;2023-12-14T02:26:57;101511.97;;;6.62;100.00
69318;BME280;56457;52.190;4.440;2023-12-14T02:27:58;101507.63;;;6.62;100.00
69318;BME280;56457;52.190;4.440;2023-12-14T02:28:58;101519.00;;;6.66;100.00
69318;BME280;56457;52.190;4.440;2023-12-14T02:29:58;101517.28;;;6.68;100.00
69318;BME280;56457;52.190;4.440;2023-12-14T02:30:58;101521.63;;;6.67;100.00
69318;BME280;56457;52.190;4.440;2023-12-14T02:31:59;101524.22;;;6.66;100.00
69318;BME280;56457;52.190;4.440;2023-12-14T02:32:59;101527.56;;;6.59;100.00
69318;BME280;56457;52.190;4.440;2023-12-14T02:33:59;101530.09;;;6.56;100.00
69318;BME280;56457;52.190;4.440;2023-12-14T02:34:59;101528.44;;;6.61;100.00
69318;BME280;56457;52.190;4.440;2023-12-14T02:36:00;101524.22;;;6.66;100.00
69318;BME280;56457;52.190;4.440;2023-12-14T02:37:00;101519.97;;;6.71;100.00
69318;BME280;56457;52.190;4.440;2023-12-14T02:38:00;101519.06;;;6.70;100.00
69318;BME280;56457;52.190;4.440;2023-12-14T02:39:01;101518.19;;;6.70;100.00
69318;BME280;56457;52.190;4.440;2023-12-14T02:40:01;101520.78;;;6.70;100.00
69318;BME280;56457;52.190;4.440;2023-12-14T02:41:01;101524.25;;;6.69;100.00
69318;BME280;56457;52.190;4.440;2023-12-14T02:42:02;101520.00;;;6.72;100.00
69318;BME280;56457;52.190;4.440;2023-12-14T02:43:02;101510.31;;;6.65;100.00
69318;BME280;56457;52.190;4.440;2023-12-14T02:44:02;101525.00;;;6.62;100.00
69318;BME280;56457;52.190;4.440;2023-12-14T02:45:03;101521.53;;;6.63;100.00
69318;BME280;56457;52.190;4.440;2023-12-14T02:46:03;101519.78;;;6.62;100.00
69318;BME280;56457;52.190;4.440;2023-12-14T02:47:04;101520.53;;;6.56;100.00
69318;BME280;56457;52.190;4.440;2023-12-14T02:48:04;101519.66;;;6.56;100.00
69318;BME280;56457;52.190;4.440;2023-12-14T02:49:04;101523.25;;;6.61;100.00
69318;BME280;56457;52.190;4.440;2023-12-14T02:50:05;101519.72;;;6.59;100.00
69318;BME280;56457;52.190;4.440;2023-12-14T02:51:05;101523.25;;;6.61;100.00
69318;BME280;56457;52.190;4.440;2023-12-14T02:52:06;101530.97;;;6.56;100.00
69318;BME280;56457;52.190;4.440;2023-12-14T02:53:06;101539.75;;;6.60;100.00
69318;BME280;56457;52.190;4.440;2023-12-14T02:54:06;101531.97;;;6.63;100.00
69318;BME280;56457;52.190;4.440;2023-12-14T02:55:07;101535.53;;;6.68;100.00
69318;BME280;56457;52.190;4.440;2023-12-14T02:56:08;101526.81;;;6.66;100.00
69318;BME280;56457;52.190;4.440;2023-12-14T02:57:09;101537.13;;;6.60;100.00
69318;BME280;56457;52.190;4.440;2023-12-14T02:58:09;101529.31;;;6.60;100.00
69318;BME280;56457;52.190;4.440;2023-12-14T02:59:09;101539.66;;;6.57;100.00
69318;BME280;56457;52.190;4.440;2023-12-14T03:00:10;101543.09;;;6.54;100.00
69318;BME280;56457;52.190;4.440;2023-12-14T03:01:10;101543.13;;;6.56;100.00
69318;BME280;56457;52.190;4.440;2023-12-14T03:02:10;101546.63;;;6.58;100.00
69318;BME280;56457;52.190;4.440;2023-12-14T03:03:11;101551.81;;;6.56;100.00
69318;BME280;56457;52.190;4.440;2023-12-14T03:04:11;101551.78;;;6.55;100.00
69318;BME280;56457;52.190;4.440;2023-12-14T03:05:11;101560.44;;;6.52;100.00
69318;BME280;56457;52.190;4.440;2023-12-14T03:06:12;101549.03;;;6.47;100.00
69318;BME280;56457;52.190;4.440;2023-12-14T03:07:12;101562.25;;;6.56;100.00
69318;BME280;56457;52.190;4.440;2023-12-14T03:08:12;101544.91;;;6.58;100.00
69318;BME280;56457;52.190;4.440;2023-12-14T03:09:13;101546.69;;;6.59;100.00
69318;BME280;56457;52.190;4.440;2023-12-14T03:10:13;101548.34;;;6.57;100.00
69318;BME280;56457;52.190;4.440;2023-12-14T03:11:22;101550.09;;;6.57;100.00
69318;BME280;56457;52.190;4.440;2023-12-14T03:12:23;101550.16;;;6.60;100.00
69318;BME280;56457;52.190;4.440;2023-12-14T03:13:23;101550.94;;;6.56;100.00
69318;BME280;56457;52.190;4.440;2023-12-14T03:14:24;101545.81;;;6.59;100.00
69318;BME280;56457;52.190;4.440;2023-12-14T03:15:24;101544.13;;;6.62;100.00
69318;BME280;56457;52.190;4.440;2023-12-14T03:16:24;101546.69;;;6.61;100.00
69318;BME280;56457;52.190;4.440;2023-12-14T03:17:25;101549.22;;;6.56;100.00
69318;BME280;56457;52.190;4.440;2023-12-14T03:18:25;101548.34;;;6.56;100.00
69318;BME280;56457;52.190;4.440;2023-12-14T03:19:25;101543.97;;;6.55;100.00
69318;BME280;56457;52.190;4.440;2023-12-14T03:20:25;101541.47;;;6.59;100.00
69318;BME280;56457;52.190;4.440;2023-12-14T03:21:26;101537.03;;;6.55;100.00
69318;BME280;56457;52.190;4.440;2023-12-14T03:22:26;101538.50;;;6.42;100.00
69318;BME280;56457;52.190;4.440;2023-12-14T03:23:26;101544.63;;;6.44;100.00
69318;BME280;56457;52.190;4.440;2023-12-14T03:24:27;101550.78;;;6.46;100.00
69318;BME280;56457;52.190;4.440;2023-12-14T03:25:27;101538.56;;;6.45;100.00
69318;BME280;56457;52.190;4.440;2023-12-14T03:26:27;101543.72;;;6.41;100.00
69318;BME280;56457;52.190;4.440;2023-12-14T03:27:28;101551.59;;;6.45;100.00
69318;BME280;56457;52.190;4.440;2023-12-14T03:28:28;101551.72;;;6.52;100.00
69318;BME280;56457;52.190;4.440;2023-12-14T03:29:28;101543.97;;;6.55;100.00
69318;BME280;56457;52.190;4.440;2023-12-14T03:30:29;101552.66;;;6.54;100.00
69318;BME280;56457;52.190;4.440;2023-12-14T03:31:29;101545.69;;;6.53;100.00
69318;BME280;56457;52.190;4.440;2023-12-14T03:32:29;101550.91;;;6.53;100.00
69318;BME280;56457;52.190;4.440;2023-12-14T03:33:29;101558.63;;;6.50;100.00
69318;BME280;56457;52.190;4.440;2023-12-14T03:34:30;101550.78;;;6.46;100.00
69318;BME280;56457;52.190;4.440;2023-12-14T03:35:30;101562.94;;;6.47;100.00
69318;BME280;56457;52.190;4.440;2023-12-14T03:36:30;101558.63;;;6.50;100.00
69318;BME280;56457;52.190;4.440;2023-12-14T03:37:31;101550.97;;;6.57;100.00
69318;BME280;56457;52.190;4.440;2023-12-14T03:38:31;101558.75;;;6.56;100.00
69318;BME280;56457;52.190;4.440;2023-12-14T03:39:32;101564.81;;;6.53;100.00
69318;BME280;56457;52.190;4.440;2023-12-14T03:40:32;101567.41;;;6.53;100.00
69318;BME280;56457;52.190;4.440;2023-12-14T03:41:32;101565.72;;;6.57;100.00
69318;BME280;56457;52.190;4.440;2023-12-14T03:42:33;101562.25;;;6.56;100.00
69318;BME280;56457;52.190;4.440;2023-12-14T03:43:33;101563.13;;;6.57;100.00
69318;BME280;56457;52.190;4.440;2023-12-14T03:44:33;101559.53;;;6.52;100.00
69318;BME280;56457;52.190;4.440;2023-12-14T03:45:33;101563.06;;;6.54;100.00
69318;BME280;56457;52.190;4.440;2023-12-14T03:46:34;101562.97;;;6.49;100.00
69318;BME280;56457;52.190;4.440;2023-12-14T03:47:34;101563.81;;;6.46;100.00
69318;BME280;56457;52.190;4.440;2023-12-14T03:48:35;101567.34;;;6.50;100.00
69318;BME280;56457;52.190;4.440;2023-12-14T03:49:38;101569.97;;;6.52;100.00
69318;BME280;56457;52.190;4.440;2023-12-14T03:50:38;101572.56;;;6.50;100.00
69318;BME280;56457;52.190;4.440;2023-12-14T03:51:39;101571.69;;;6.51;100.00
69318;BME280;56457;52.190;4.440;2023-12-14T03:52:39;101581.34;;;6.55;100.00
69318;BME280;56457;52.190;4.440;2023-12-14T03:53:40;101574.34;;;6.53;100.00
69318;BME280;56457;52.190;4.440;2023-12-14T03:54:41;101577.75;;;6.48;100.00
69318;BME280;56457;52.190;4.440;2023-12-14T03:55:41;101577.78;;;6.52;100.00
69318;BME280;56457;52.190;4.440;2023-12-14T03:56:41;101569.16;;;6.54;100.00
69318;BME280;56457;52.190;4.440;2023-12-14T03:57:41;101575.19;;;6.52;100.00
69318;BME280;56457;52.190;4.440;2023-12-14T03:58:42;101576.00;;;6.47;100.00
69318;BME280;56457;52.190;4.440;2023-12-14T03:59:42;101574.22;;;6.46;100.00
69318;BME280;56457;52.190;4.440;2023-12-14T04:00:42;101574.28;;;6.50;100.00
69318;BME280;56457;52.190;4.440;2023-12-14T04:01:42;101571.69;;;6.50;100.00
69318;BME280;56457;52.190;4.440;2023-12-14T04:02:43;101578.75;;;6.55;100.00
69318;BME280;56457;52.190;4.440;2023-12-14T04:03:43;101576.16;;;6.57;100.00
69318;BME280;56457;52.190;4.440;2023-12-14T04:04:43;101576.25;;;6.61;100.00
69318;BME280;56457;52.190;4.440;2023-12-14T04:05:45;101573.63;;;6.60;100.00
69318;BME280;56457;52.190;4.440;2023-12-14T04:06:45;101578.78;;;6.58;100.00
69318;BME280;56457;52.190;4.440;2023-12-14T04:07:45;101576.97;;;6.53;100.00
69318;BME280;56457;52.190;4.440;2023-12-14T04:08:46;101582.09;;;6.50;100.00
69318;BME280;56457;52.190;4.440;2023-12-14T04:09:46;101582.19;;;6.54;100.00
69318;BME280;56457;52.190;4.440;2023-12-14T04:10:46;101585.69;;;6.55;100.00
69318;BME280;56457;52.190;4.440;2023-12-14T04:11:47;101580.41;;;6.52;100.00
69318;BME280;56457;52.190;4.440;2023-12-14T04:12:47;101593.50;;;6.55;100.00
69318;BME280;56457;52.190;4.440;2023-12-14T04:13:48;101593.41;;;6.50;100.00
69318;BME280;56457;52.190;4.440;2023-12-14T04:14:50;101592.59;;;6.53;100.00
69318;BME280;56457;52.190;4.440;2023-12-14T04:15:51;101596.16;;;6.58;100.00
69318;BME280;56457;52.190;4.440;2023-12-14T04:16:51;101599.63;;;6.57;100.00
69318;BME280;56457;52.190;4.440;2023-12-14T04:17:51;101602.25;;;6.58;100.00
69318;BME280;56457;52.190;4.440;2023-12-14T04:18:52;101597.00;;;6.57;100.00
69318;BME280;56457;52.190;4.440;2023-12-14T04:19:52;101604.91;;;6.60;100.00
69318;BME280;56457;52.190;4.440;2023-12-14T04:20:52;101606.72;;;6.64;100.00
69318;BME280;56457;52.190;4.440;2023-12-14T04:21:52;101608.31;;;6.56;100.00
69318;BME280;56457;52.190;4.440;2023-12-14T04:22:53;101610.97;;;6.59;100.00
69318;BME280;56457;52.190;4.440;2023-12-14T04:23:53;101617.13;;;6.62;100.00
69318;BME280;56457;52.190;4.440;2023-12-14T04:24:53;101615.34;;;6.60;100.00
69318;BME280;56457;52.190;4.440;2023-12-14T04:25:54;101615.28;;;6.58;100.00
69318;BME280;56457;52.190;4.440;2023-12-14T04:26:54;101614.41;;;6.58;100.00
69318;BME280;56457;52.190;4.440;2023-12-14T04:27:54;101617.88;;;6.57;100.00
69318;BME280;56457;52.190;4.440;2023-12-14T04:28:54;101617.88;;;6.57;100.00
69318;BME280;56457;52.190;4.440;2023-12-14T04:29:55;101622.22;;;6.56;100.00
69318;BME280;56457;52.190;4.440;2023-12-14T04:30:55;101626.41;;;6.50;100.00
69318;BME280;56457;52.190;4.440;2023-12-14T04:31:55;101630.84;;;6.54;100.00
69318;BME280;56457;52.190;4.440;2023-12-14T04:32:56;101635.22;;;6.55;100.00
69318;BME280;56457;52.190;4.440;2023-12-14T04:33:56;101639.53;;;6.53;100.00
69318;BME280;56457;52.190;4.440;2023-12-14T04:34:56;101632.63;;;6.56;100.00
69318;BME280;56457;52.190;4.440;2023-12-14T04:35:57;101637.97;;;6.61;100.00
69318;BME280;56457;52.190;4.440;2023-12-14T04:36:57;101643.19;;;6.61;100.00
69318;BME280;56457;52.190;4.440;2023-12-14T04:37:57;101649.38;;;6.66;100.00
69318;BME280;56457;52.190;4.440;2023-12-14T04:38:58;101651.84;;;6.60;100.00
69318;BME280;56457;52.190;4.440;2023-12-14T04:39:58;101653.50;;;6.56;100.00
69318;BME280;56457;52.190;4.440;2023-12-14T04:40:58;101667.44;;;6.58;100.00
69318;BME280;56457;52.190;4.440;2023-12-14T04:41:59;101666.63;;;6.61;100.00
69318;BME280;56457;52.190;4.440;2023-12-14T04:42:59;101674.50;;;6.64;100.00
69318;BME280;56457;52.190;4.440;2023-12-14T04:43:59;101676.31;;;6.66;100.00
69318;BME280;56457;52.190;4.440;2023-12-14T04:44:59;101681.50;;;6.65;100.00
69318;BME280;56457;52.190;4.440;2023-12-14T04:46:00;101679.53;;;6.55;100.00
69318;BME280;56457;52.190;4.440;2023-12-14T04:47:00;101681.38;;;6.59;100.00
69318;BME280;56457;52.190;4.440;2023-12-14T04:48:00;101688.44;;;6.64;100.00
69318;BME280;56457;52.190;4.440;2023-12-14T04:49:00;101683.16;;;6.61;100.00
69318;BME280;56457;52.190;4.440;2023-12-14T04:50:01;101682.25;;;6.59;100.00
69318;BME280;56457;52.190;4.440;2023-12-14T04:51:02;101689.25;;;6.62;100.00
69318;BME280;56457;52.190;4.440;2023-12-14T04:52:02;101687.53;;;6.62;100.00
69318;BME280;56457;52.190;4.440;2023-12-14T04:53:03;101684.03;;;6.62;100.00
69318;BME280;56457;52.190;4.440;2023-12-14T04:54:03;101680.72;;;6.69;100.00
69318;BME280;56457;52.190;4.440;2023-12-14T04:55:04;101684.16;;;6.66;100.00
69318;BME280;56457;52.190;4.440;2023-12-14T04:56:04;101682.19;;;6.58;100.00
69318;BME280;56457;52.190;4.440;2023-12-14T04:57:05;101693.47;;;6.55;100.00
69318;BME280;56457;52.190;4.440;2023-12-14T04:58:05;101690.84;;;6.55;100.00
69318;BME280;56457;52.190;4.440;2023-12-14T04:59:05;101682.19;;;6.58;100.00
69318;BME280;56457;52.190;4.440;2023-12-14T05:00:06;101686.63;;;6.60;100.00
69318;BME280;56457;52.190;4.440;2023-12-14T05:01:07;101690.09;;;6.61;100.00
69318;BME280;56457;52.190;4.440;2023-12-14T05:02:08;101690.97;;;6.60;100.00
69318;BME280;56457;52.190;4.440;2023-12-14T05:03:08;101687.38;;;6.56;100.00
69318;BME280;56457;52.190;4.440;2023-12-14T05:04:08;101683.06;;;6.57;100.00
69318;BME280;56457;52.190;4.440;2023-12-14T05:05:09;101680.44;;;6.57;100.00
69318;BME280;56457;52.190;4.440;2023-12-14T05:06:09;101690.09;;;6.59;100.00
69318;BME280;56457;52.190;4.440;2023-12-14T05:07:09;101686.66;;;6.62;100.00
69318;BME280;56457;52.190;4.440;2023-12-14T05:08:09;101685.59;;;6.52;100.00
69318;BME280;56457;52.190;4.440;2023-12-14T05:09:10;101693.56;;;6.60;100.00
69318;BME280;56457;52.190;4.440;2023-12-14T05:10:11;101701.34;;;6.58;100.00
69318;BME280;56457;52.190;4.440;2023-12-14T05:11:12;101697.03;;;6.59;100.00
69318;BME280;56457;52.190;4.440;2023-12-14T05:12:12;101696.94;;;6.56;100.00
69318;BME280;56457;52.190;4.440;2023-12-14T05:13:13;101695.19;;;6.55;100.00
69318;BME280;56457;52.190;4.440;2023-12-14T05:14:13;101711.69;;;6.54;100.00
69318;BME280;56457;52.190;4.440;2023-12-14T05:15:13;101702.16;;;6.56;100.00
69318;BME280;56457;52.190;4.440;2023-12-14T05:16:14;101702.31;;;6.63;100.00
69318;BME280;56457;52.190;4.440;2023-12-14T05:17:14;101697.09;;;6.63;100.00